WXM80 ListenWXM80 Stop

You find our weather info also at:

UK Metoffice

WeatherCloud

Weather Underground

Northeastern Weather Network

AWEKAS

Citizen Weather Observer Program (CWOP)

HAMweather, WeatherForYou, PWS Weather


Weather Underground History page Text

Daily Summary for March 23, 2017 Units:  English    Metric   Both
« Previous Day
Next Day »
Daily Weekly Monthly Yearly Custom
  High: Low: Average:
Temperature: 42.0 °F 23.0 °F 32 °F
Dew Point: 25.5 °F 3.9 °F 10.2 °F
Humidity: 72 % 26 % 42 %
Wind Speed: 12.5 mph 0.0 mph 3.9 mph
Wind Gust: 16.1 mph - -
Wind:- - WNW
Pressure: 30.56 in 30.40 in -
Precipitation: 0.00 in    
Historical Graphs
 
 
Tabular Data for March 23, 2017
Time Temperature Dew Point Pressure Wind Wind Speed Wind Gust Humidity Rainfall Rate (Hourly)
00:03 25.1 °F 4.7 °F 30.40 in NW 6.1 mph 11.0 mph 41 % 0.00 in
00:08 25.0 °F 4.6 °F 30.41 in WNW 7.7 mph 13.8 mph 41 % 0.00 in
00:13 25.0 °F 5.1 °F 30.41 in NW 12.5 mph 15.0 mph 42 % 0.00 in
00:18 24.9 °F 3.9 °F 30.41 in NW 5.6 mph 10.4 mph 40 % 0.00 in
00:23 24.9 °F 5.0 °F 30.41 in NNW 5.4 mph 13.8 mph 42 % 0.00 in
00:28 24.8 °F 4.4 °F 30.42 in NNW 6.7 mph 15.0 mph 41 % 0.00 in
00:33 24.7 °F 4.8 °F 30.42 in NW 4.2 mph 9.2 mph 42 % 0.00 in
00:38 24.6 °F 5.3 °F 30.42 in WNW 5.6 mph 13.0 mph 43 % 0.00 in
00:43 24.6 °F 4.2 °F 30.42 in WNW 6.4 mph 11.5 mph 41 % 0.00 in
00:48 24.5 °F 4.6 °F 30.42 in North 6.4 mph 10.4 mph 42 % 0.00 in
00:53 24.4 °F 5.1 °F 30.42 in NNW 4.2 mph 8.1 mph 43 % 0.00 in
00:58 24.4 °F 5.1 °F 30.42 in WNW 5.0 mph 10.4 mph 43 % 0.00 in
01:03 24.3 °F 4.5 °F 30.42 in North 5.7 mph 11.0 mph 42 % 0.00 in
01:09 24.3 °F 5.0 °F 30.42 in NNW 4.3 mph 9.2 mph 43 % 0.00 in
01:14 24.2 °F 4.9 °F 30.42 in NW 6.9 mph 10.4 mph 43 % 0.00 in
01:19 24.2 °F 4.9 °F 30.42 in NNW 4.1 mph 10.4 mph 43 % 0.00 in
01:29 24.1 °F 5.3 °F 30.43 in North 5.5 mph 9.0 mph 44 % 0.00 in
01:34 24.0 °F 5.2 °F 30.43 in NW 6.0 mph 10.4 mph 44 % 0.00 in
01:39 24.0 °F 5.2 °F 30.43 in North 4.1 mph 6.9 mph 44 % 0.00 in
01:44 23.9 °F 5.6 °F 30.43 in NW 3.5 mph 6.9 mph 45 % 0.00 in
01:49 23.9 °F 6.6 °F 30.43 in WNW 5.2 mph 13.0 mph 47 % 0.00 in
01:54 23.9 °F 6.1 °F 30.43 in NW 4.1 mph 8.1 mph 46 % 0.00 in
01:59 23.8 °F 6.0 °F 30.43 in NW 2.9 mph 8.1 mph 46 % 0.00 in
02:04 23.8 °F 6.5 °F 30.43 in NNW 4.5 mph 6.9 mph 47 % 0.00 in
02:09 23.8 °F 6.5 °F 30.43 in NNW 4.1 mph 11.5 mph 47 % 0.00 in
02:14 23.7 °F 6.4 °F 30.43 in NW 1.9 mph 6.9 mph 47 % 0.00 in
02:19 23.7 °F 6.4 °F 30.43 in NW 5.8 mph 10.4 mph 47 % 0.00 in
02:24 23.7 °F 6.8 °F 30.43 in NNW 3.5 mph 4.6 mph 48 % 0.00 in
02:29 23.6 °F 6.8 °F 30.43 in NNW 2.8 mph 4.6 mph 48 % 0.00 in
02:31 23.6 °F 6.8 °F 30.44 in North 4.3 mph 9.0 mph 48 % 0.00 in
02:36 23.6 °F 6.3 °F 30.43 in NNW 5.1 mph 8.1 mph 47 % 0.00 in
02:41 23.6 °F 6.8 °F 30.43 in NW 2.3 mph 4.6 mph 48 % 0.00 in
02:46 23.5 °F 6.7 °F 30.43 in NNW 2.5 mph 6.9 mph 48 % 0.00 in
02:48 23.5 °F 6.7 °F 30.44 in North 2.1 mph 7.0 mph 48 % 0.00 in
02:53 23.5 °F 6.7 °F 30.44 in NNW 2.0 mph 9.0 mph 48 % 0.00 in
02:58 23.5 °F 7.1 °F 30.43 in NW 4.9 mph 10.4 mph 49 % 0.00 in
03:03 23.5 °F 7.1 °F 30.44 in NNW 3.0 mph 10.0 mph 49 % 0.00 in
03:08 23.5 °F 6.7 °F 30.44 in NW 3.0 mph 12.0 mph 48 % 0.00 in
03:13 23.5 °F 6.7 °F 30.44 in NNW 2.0 mph 12.0 mph 48 % 0.00 in
03:18 23.5 °F 7.1 °F 30.44 in NNW 5.0 mph 8.0 mph 49 % 0.00 in
03:23 23.5 °F 7.1 °F 30.44 in NNW 3.0 mph 8.0 mph 49 % 0.00 in
03:27 23.4 °F 7.5 °F 30.44 in NNE 2.8 mph 6.9 mph 50 % 0.00 in
03:32 23.4 °F 7.9 °F 30.44 in North 3.8 mph 6.9 mph 51 % 0.00 in
03:37 23.4 °F 7.0 °F 30.44 in NNW 2.3 mph 5.0 mph 49 % 0.00 in
03:42 23.4 °F 7.5 °F 30.44 in NNW 2.0 mph 5.8 mph 50 % 0.00 in
03:47 23.4 °F 7.5 °F 30.44 in NNW 3.0 mph 7.0 mph 50 % 0.00 in
03:52 23.3 °F 7.4 °F 30.44 in NNW 3.0 mph 7.0 mph 50 % 0.00 in
03:58 23.3 °F 7.4 °F 30.44 in North 3.0 mph 4.6 mph 50 % 0.00 in
04:03 23.3 °F 7.4 °F 30.44 in NW 2.6 mph 3.5 mph 50 % 0.00 in
04:08 23.3 °F 7.4 °F 30.45 in North 3.8 mph 5.8 mph 50 % 0.00 in
04:13 23.2 °F 7.3 °F 30.44 in NNW 2.9 mph 8.1 mph 50 % 0.00 in
04:18 23.2 °F 7.3 °F 30.45 in NNE 2.7 mph 5.8 mph 50 % 0.00 in
04:23 23.1 °F 7.2 °F 30.45 in North 0.1 mph 4.6 mph 50 % 0.00 in
04:28 23.1 °F 7.6 °F 30.45 in NNW 2.0 mph 4.0 mph 51 % 0.00 in
04:33 23.1 °F 7.6 °F 30.45 in North 3.8 mph 5.8 mph 51 % 0.00 in
04:38 23.1 °F 8.1 °F 30.45 in North 1.9 mph 4.6 mph 52 % 0.00 in
04:43 23.0 °F 7.5 °F 30.46 in NNW 3.2 mph 5.8 mph 51 % 0.00 in
04:48 23.0 °F 7.5 °F 30.46 in NW 1.5 mph 4.0 mph 51 % 0.00 in
04:53 23.1 °F 8.1 °F 30.46 in NNW 2.3 mph 4.6 mph 52 % 0.00 in
04:58 23.0 °F 8.0 °F 30.46 in NW 3.6 mph 9.2 mph 52 % 0.00 in
05:03 23.0 °F 8.4 °F 30.46 in NNW 1.9 mph 3.5 mph 53 % 0.00 in
05:08 23.1 °F 8.5 °F 30.47 in NNE 1.9 mph 5.0 mph 53 % 0.00 in
05:13 23.0 °F 8.8 °F 30.47 in North 0.8 mph 3.5 mph 54 % 0.00 in
05:18 23.0 °F 8.8 °F 30.47 in North 1.0 mph 2.3 mph 54 % 0.00 in
05:23 23.0 °F 8.8 °F 30.48 in NW 1.4 mph 3.5 mph 54 % 0.00 in
05:28 23.0 °F 8.4 °F 30.48 in NW 0.9 mph 3.5 mph 53 % 0.00 in
05:33 23.0 °F 8.4 °F 30.48 in NW 2.4 mph 6.9 mph 53 % 0.00 in
05:38 23.0 °F 8.0 °F 30.48 in North 1.9 mph 7.0 mph 52 % 0.00 in
05:43 23.0 °F 8.4 °F 30.48 in NNW 1.6 mph 3.5 mph 53 % 0.00 in
05:48 23.0 °F 8.8 °F 30.49 in WNW 1.2 mph 5.8 mph 54 % 0.00 in
05:53 23.1 °F 8.1 °F 30.49 in North 2.5 mph 6.9 mph 52 % 0.00 in
05:58 23.2 °F 8.6 °F 30.49 in NNW 1.7 mph 5.8 mph 53 % 0.00 in
06:03 23.3 °F 8.2 °F 30.50 in NW 4.0 mph 11.5 mph 52 % 0.00 in
06:08 23.4 °F 6.6 °F 30.50 in North 6.2 mph 9.0 mph 48 % 0.00 in
06:13 23.5 °F 7.6 °F 30.50 in NW 6.8 mph 11.5 mph 50 % 0.00 in
06:18 23.5 °F 7.6 °F 30.50 in NNW 4.4 mph 5.0 mph 50 % 0.00 in
06:24 23.6 °F 8.1 °F 30.50 in West 3.7 mph 6.0 mph 51 % 0.00 in
06:29 23.6 °F 7.2 °F 30.51 in NW 2.5 mph 4.6 mph 49 % 0.00 in
06:34 23.6 °F 7.2 °F 30.51 in North 4.0 mph 5.0 mph 49 % 0.00 in
06:39 23.7 °F 6.8 °F 30.51 in NW 5.0 mph 7.0 mph 48 % 0.00 in
06:44 23.6 °F 7.7 °F 30.51 in NNW 4.1 mph 8.1 mph 50 % 0.00 in
06:49 23.6 °F 6.8 °F 30.51 in NNW 4.3 mph 9.2 mph 48 % 0.00 in
06:54 23.7 °F 7.7 °F 30.52 in NNW 6.2 mph 9.2 mph 50 % 0.00 in
06:59 23.7 °F 8.2 °F 30.52 in NW 4.6 mph 6.9 mph 51 % 0.00 in
07:04 23.7 °F 7.3 °F 30.52 in NW 6.3 mph 9.2 mph 49 % 0.00 in
07:09 23.8 °F 7.4 °F 30.52 in NNW 5.2 mph 8.0 mph 49 % 0.00 in
07:14 23.9 °F 7.5 °F 30.53 in WNW 7.9 mph 12.7 mph 49 % 0.00 in
07:19 23.9 °F 6.6 °F 30.53 in NW 4.5 mph 6.9 mph 47 % 0.00 in
07:24 24.0 °F 6.7 °F 30.53 in NW 5.7 mph 6.9 mph 47 % 0.00 in
07:29 24.2 °F 7.8 °F 30.53 in WNW 4.5 mph 8.1 mph 49 % 0.00 in
07:34 24.3 °F 7.4 °F 30.54 in NNW 7.7 mph 10.4 mph 48 % 0.00 in
07:40 24.5 °F 7.6 °F 30.54 in NW 2.5 mph 5.8 mph 48 % 0.00 in
07:45 24.8 °F 7.9 °F 30.54 in North 4.0 mph 8.1 mph 48 % 0.00 in
07:50 25.0 °F 7.6 °F 30.54 in NNW 6.5 mph 11.5 mph 47 % 0.00 in
07:55 25.2 °F 7.8 °F 30.54 in NNW 4.3 mph 15.0 mph 47 % 0.00 in
08:00 25.4 °F 8.4 °F 30.54 in NNW 3.1 mph 5.8 mph 48 % 0.00 in
08:10 25.7 °F 7.3 °F 30.54 in NW 3.5 mph 11.5 mph 45 % 0.00 in
08:15 25.8 °F 8.3 °F 30.55 in WNW 6.0 mph 10.4 mph 47 % 0.00 in
08:20 26.0 °F 7.5 °F 30.54 in WNW 4.8 mph 10.4 mph 45 % 0.00 in
08:25 26.3 °F 7.8 °F 30.55 in WNW 8.4 mph 11.5 mph 45 % 0.00 in
08:30 26.5 °F 7.0 °F 30.55 in NNW 4.3 mph 16.1 mph 43 % 0.00 in
08:35 26.7 °F 8.2 °F 30.55 in NNW 7.2 mph 11.5 mph 45 % 0.00 in
08:40 27.1 °F 8.0 °F 30.55 in NNW 5.9 mph 8.1 mph 44 % 0.00 in
08:45 27.4 °F 7.8 °F 30.55 in NNW 4.1 mph 9.0 mph 43 % 0.00 in
08:50 27.6 °F 8.0 °F 30.55 in West 5.8 mph 8.1 mph 43 % 0.00 in
08:55 27.8 °F 7.6 °F 30.56 in WNW 5.0 mph 11.0 mph 42 % 0.00 in
09:00 28.0 °F 7.3 °F 30.56 in NW 4.6 mph 16.1 mph 41 % 0.00 in
09:05 28.2 °F 8.0 °F 30.56 in NW 4.2 mph 10.4 mph 42 % 0.00 in
09:11 28.4 °F 8.7 °F 30.55 in NW 3.9 mph 13.8 mph 43 % 0.00 in
09:21 28.7 °F 9.0 °F 30.56 in North 8.0 mph 12.7 mph 43 % 0.00 in
09:26 28.9 °F 9.7 °F 30.56 in NW 5.6 mph 10.4 mph 44 % 0.00 in
09:31 29.0 °F 9.8 °F 30.56 in WNW 6.5 mph 11.5 mph 44 % 0.00 in
09:36 29.0 °F 8.7 °F 30.56 in NW 6.2 mph 11.5 mph 42 % 0.00 in
09:41 29.2 °F 8.9 °F 30.56 in NW 5.6 mph 9.2 mph 42 % 0.00 in
09:46 29.4 °F 9.1 °F 30.56 in WNW 6.1 mph 11.5 mph 42 % 0.00 in
09:51 29.7 °F 8.3 °F 30.56 in NW 7.2 mph 16.0 mph 40 % 0.00 in
09:56 29.7 °F 7.2 °F 30.56 in NNW 8.8 mph 11.5 mph 38 % 0.00 in
10:01 29.9 °F 8.5 °F 30.56 in NNW 5.0 mph 9.2 mph 40 % 0.00 in
10:06 30.3 °F 8.3 °F 30.56 in NNW 6.3 mph 9.2 mph 39 % 0.00 in
10:11 30.6 °F 8.0 °F 30.56 in NW 6.8 mph 8.1 mph 38 % 0.00 in
10:16 30.9 °F 7.6 °F 30.56 in NW 5.1 mph 6.9 mph 37 % 0.00 in
10:21 31.0 °F 7.1 °F 30.56 in North 5.4 mph 9.2 mph 36 % 0.00 in
10:27 31.2 °F 7.3 °F 30.56 in NW 8.0 mph 13.0 mph 36 % 0.00 in
10:32 31.5 °F 8.2 °F 30.56 in NW 2.9 mph 11.5 mph 37 % 0.00 in
10:37 32.0 °F 8.0 °F 30.56 in NNW 2.4 mph 5.8 mph 36 % 0.00 in
10:42 32.6 °F 8.6 °F 30.56 in NNW 5.5 mph 9.2 mph 36 % 0.00 in
10:47 32.9 °F 8.2 °F 30.56 in WNW 7.4 mph 12.7 mph 35 % 0.00 in
10:52 33.0 °F 7.6 °F 30.56 in WNW 7.0 mph 7.0 mph 34 % 0.00 in
10:57 33.2 °F 8.5 °F 30.56 in NW 5.3 mph 11.5 mph 35 % 0.00 in
11:02 33.7 °F 8.9 °F 30.56 in NNW 3.0 mph 5.8 mph 35 % 0.00 in
11:07 34.3 °F 9.4 °F 30.56 in NW 3.2 mph 5.0 mph 35 % 0.00 in
11:12 34.7 °F 9.1 °F 30.55 in North 3.1 mph 5.0 mph 34 % 0.00 in
11:17 35.1 °F 8.8 °F 30.55 in North 6.5 mph 11.5 mph 33 % 0.00 in
11:22 35.9 °F 10.2 °F 30.55 in NW 4.5 mph 7.0 mph 34 % 0.00 in
11:23 36.0 °F 9.6 °F 30.55 in NNW 5.6 mph 7.0 mph 33 % 0.00 in
11:28 36.3 °F 8.5 °F 30.55 in NW 5.8 mph 8.1 mph 31 % 0.00 in
11:33 36.5 °F 7.2 °F 30.55 in NW 4.8 mph 8.1 mph 29 % 0.00 in
11:38 36.5 °F 8.0 °F 30.55 in NNW 6.1 mph 9.2 mph 30 % 0.00 in
11:43 36.8 °F 8.2 °F 30.55 in NW 5.6 mph 8.1 mph 30 % 0.00 in
11:48 37.0 °F 8.4 °F 30.55 in North 6.6 mph 8.1 mph 30 % 0.00 in
11:53 37.0 °F 8.4 °F 30.55 in NW 5.5 mph 11.5 mph 30 % 0.00 in
11:58 37.3 °F 10.1 °F 30.55 in NNE 4.0 mph 8.1 mph 32 % 0.00 in
12:03 37.7 °F 9.7 °F 30.54 in NW 5.2 mph 8.1 mph 31 % 0.00 in
12:08 38.0 °F 8.5 °F 30.54 in NNW 3.8 mph 9.2 mph 29 % 0.00 in
12:13 38.3 °F 9.5 °F 30.54 in WNW 5.3 mph 11.5 mph 30 % 0.00 in
12:19 38.5 °F 9.7 °F 30.54 in WNW 4.9 mph 7.0 mph 30 % 0.00 in
12:24 38.7 °F 9.9 °F 30.54 in NW 3.3 mph 9.2 mph 30 % 0.00 in
12:29 38.6 °F 9.0 °F 30.54 in WNW 4.5 mph 8.1 mph 29 % 0.00 in
12:34 38.7 °F 9.9 °F 30.54 in WNW 4.2 mph 12.0 mph 30 % 0.00 in
12:39 39.1 °F 12.4 °F 30.53 in NNW 5.3 mph 9.2 mph 33 % 0.00 in
12:40 39.1 °F 10.2 °F 30.53 in WNW 4.3 mph 8.1 mph 30 % 0.00 in
12:45 39.0 °F 7.8 °F 30.53 in NW 5.8 mph 8.1 mph 27 % 0.00 in
12:50 38.6 °F 9.8 °F 30.53 in NW 4.6 mph 8.1 mph 30 % 0.00 in
12:55 38.9 °F 10.8 °F 30.53 in NNW 5.2 mph 9.2 mph 31 % 0.00 in
13:01 39.6 °F 12.1 °F 30.53 in NNW 6.0 mph 10.0 mph 32 % 0.00 in
13:06 39.4 °F 10.5 °F 30.53 in West 6.9 mph 11.5 mph 30 % 0.00 in
13:11 39.6 °F 11.4 °F 30.53 in WSW 7.7 mph 12.0 mph 31 % 0.00 in
13:16 39.8 °F 11.6 °F 30.53 in West 3.2 mph 7.0 mph 31 % 0.00 in
13:21 39.7 °F 9.2 °F 30.53 in West 4.6 mph 6.9 mph 28 % 0.00 in
13:26 39.3 °F 10.4 °F 30.53 in NW 2.8 mph 9.2 mph 30 % 0.00 in
13:31 39.0 °F 8.6 °F 30.52 in WSW 3.8 mph 6.9 mph 28 % 0.00 in
13:36 38.8 °F 8.4 °F 30.52 in WNW 6.6 mph 11.5 mph 28 % 0.00 in
13:41 39.2 °F 10.3 °F 30.52 in SW 6.7 mph 13.0 mph 30 % 0.00 in
13:46 39.3 °F 10.4 °F 30.52 in NW 1.9 mph 3.5 mph 30 % 0.00 in
13:51 39.6 °F 9.1 °F 30.52 in WNW 6.4 mph 6.9 mph 28 % 0.00 in
13:56 40.0 °F 11.0 °F 30.51 in West 5.6 mph 10.4 mph 30 % 0.00 in
14:01 40.7 °F 10.1 °F 30.51 in NW 6.2 mph 10.4 mph 28 % 0.00 in
14:06 40.6 °F 10.0 °F 30.51 in WNW 5.3 mph 11.5 mph 28 % 0.00 in
14:11 40.7 °F 10.9 °F 30.51 in WNW 5.9 mph 11.0 mph 29 % 0.00 in
14:16 40.4 °F 9.0 °F 30.51 in WNW 6.1 mph 10.4 mph 27 % 0.00 in
14:21 40.2 °F 10.4 °F 30.51 in WNW 7.1 mph 11.5 mph 29 % 0.00 in
14:26 40.0 °F 9.5 °F 30.51 in WNW 6.9 mph 12.7 mph 28 % 0.00 in
14:31 40.1 °F 9.6 °F 30.50 in West 1.6 mph 5.0 mph 28 % 0.00 in
14:36 40.3 °F 11.3 °F 30.50 in West 5.9 mph 11.5 mph 30 % 0.00 in
14:41 40.5 °F 9.9 °F 30.50 in NW 8.3 mph 12.7 mph 28 % 0.00 in
14:46 40.5 °F 9.1 °F 30.50 in WNW 7.6 mph 12.7 mph 27 % 0.00 in
14:51 40.6 °F 10.0 °F 30.50 in NW 5.9 mph 11.5 mph 28 % 0.00 in
14:56 40.7 °F 10.9 °F 30.50 in NW 3.1 mph 6.0 mph 29 % 0.00 in
15:01 40.8 °F 10.9 °F 30.50 in NW 5.3 mph 11.5 mph 29 % 0.00 in
15:06 41.1 °F 11.2 °F 30.50 in West 4.9 mph 9.2 mph 29 % 0.00 in
15:11 41.1 °F 9.6 °F 30.50 in NW 5.7 mph 9.2 mph 27 % 0.00 in
15:16 41.0 °F 9.5 °F 30.50 in WNW 6.4 mph 9.2 mph 27 % 0.00 in
15:21 41.0 °F 8.7 °F 30.49 in NW 4.3 mph 11.5 mph 26 % 0.00 in
15:26 40.8 °F 10.2 °F 30.49 in WSW 4.3 mph 9.0 mph 28 % 0.00 in
15:31 40.5 °F 9.1 °F 30.49 in NW 9.4 mph 13.8 mph 27 % 0.00 in
15:36 40.4 °F 9.0 °F 30.49 in WNW 6.0 mph 9.2 mph 27 % 0.00 in
15:41 40.2 °F 8.8 °F 30.49 in West 7.6 mph 12.7 mph 27 % 0.00 in
15:46 40.3 °F 9.7 °F 30.49 in WSW 4.8 mph 10.4 mph 28 % 0.00 in
15:51 40.4 °F 9.0 °F 30.49 in WSW 8.2 mph 10.4 mph 27 % 0.00 in
15:56 40.6 °F 10.8 °F 30.49 in SW 6.9 mph 8.1 mph 29 % 0.00 in
16:01 40.7 °F 9.3 °F 30.49 in West 5.7 mph 13.0 mph 27 % 0.00 in
16:06 40.8 °F 10.2 °F 30.48 in West 5.0 mph 8.1 mph 28 % 0.00 in
16:11 41.1 °F 8.8 °F 30.48 in WNW 5.6 mph 11.0 mph 26 % 0.00 in
16:17 41.2 °F 8.8 °F 30.48 in NW 5.3 mph 11.5 mph 26 % 0.00 in
16:22 41.3 °F 8.9 °F 30.48 in West 4.7 mph 8.1 mph 26 % 0.00 in
16:27 41.5 °F 10.8 °F 30.48 in West 5.1 mph 10.4 mph 28 % 0.00 in
16:32 41.6 °F 9.2 °F 30.48 in WNW 4.0 mph 9.2 mph 26 % 0.00 in
16:37 41.8 °F 9.4 °F 30.48 in NNW 2.2 mph 6.9 mph 26 % 0.00 in
16:42 41.9 °F 11.9 °F 30.48 in West 4.1 mph 6.9 mph 29 % 0.00 in
16:47 42.0 °F 11.2 °F 30.48 in WNW 5.2 mph 8.1 mph 28 % 0.00 in
16:52 42.0 °F 12.0 °F 30.48 in NW 1.1 mph 3.5 mph 29 % 0.00 in
16:57 41.9 °F 9.5 °F 30.47 in NW 5.6 mph 8.0 mph 26 % 0.00 in
17:02 42.0 °F 9.5 °F 30.47 in NW 3.1 mph 5.8 mph 26 % 0.00 in
17:07 41.9 °F 9.5 °F 30.47 in NW 4.6 mph 10.0 mph 26 % 0.00 in
17:12 41.6 °F 9.2 °F 30.47 in WNW 4.0 mph 10.4 mph 26 % 0.00 in
17:17 41.4 °F 9.9 °F 30.46 in WNW 1.7 mph 11.0 mph 27 % 0.00 in
17:22 41.1 °F 8.8 °F 30.47 in NW 3.2 mph 6.9 mph 26 % 0.00 in
17:27 40.8 °F 9.3 °F 30.46 in WNW 1.1 mph 3.5 mph 27 % 0.00 in
17:31 40.6 °F 8.3 °F 30.47 in WNW 3.2 mph 8.1 mph 26 % 0.00 in
17:36 40.4 °F 9.0 °F 30.47 in WNW 1.7 mph 5.8 mph 27 % 0.00 in
17:41 40.2 °F 8.8 °F 30.47 in West 0.5 mph 4.6 mph 27 % 0.00 in
17:46 40.1 °F 8.7 °F 30.47 in North 3.1 mph 5.8 mph 27 % 0.00 in
17:52 40.0 °F 10.3 °F 30.47 in West 4.0 mph 6.9 mph 29 % 0.00 in
17:57 40.0 °F 8.7 °F 30.47 in West 4.5 mph 5.8 mph 27 % 0.00 in
18:02 39.9 °F 7.7 °F 30.47 in WNW 4.9 mph 6.9 mph 26 % 0.00 in
18:07 39.8 °F 8.5 °F 30.47 in NW 2.8 mph 5.8 mph 27 % 0.00 in
18:12 39.7 °F 8.4 °F 30.47 in West 3.4 mph 6.0 mph 27 % 0.00 in
18:17 39.6 °F 8.3 °F 30.47 in WNW 2.2 mph 6.9 mph 27 % 0.00 in
18:22 39.5 °F 8.2 °F 30.47 in West 4.6 mph 6.9 mph 27 % 0.00 in
18:27 39.5 °F 7.4 °F 30.47 in West 2.9 mph 5.8 mph 26 % 0.00 in
18:32 39.3 °F 8.9 °F 30.47 in West 0.1 mph 3.5 mph 28 % 0.00 in
18:37 39.3 °F 10.4 °F 30.47 in WSW 2.3 mph 5.8 mph 30 % 0.00 in
18:42 39.2 °F 11.0 °F 30.48 in NW 1.4 mph 5.8 mph 31 % 0.00 in
18:47 39.1 °F 10.2 °F 30.48 in West 4.6 mph 5.0 mph 30 % 0.00 in
18:52 39.0 °F 10.1 °F 30.48 in West 2.7 mph 6.0 mph 30 % 0.00 in
18:57 38.8 °F 10.0 °F 30.47 in NW 2.7 mph 5.0 mph 30 % 0.00 in
19:02 38.8 °F 10.0 °F 30.48 in WNW 2.0 mph 3.5 mph 30 % 0.00 in
19:07 38.7 °F 9.9 °F 30.48 in West 2.2 mph 4.0 mph 30 % 0.00 in
19:12 38.6 °F 9.8 °F 30.48 in West 0.6 mph 4.0 mph 30 % 0.00 in
19:17 38.4 °F 9.6 °F 30.48 in West 1.5 mph 3.5 mph 30 % 0.00 in
19:22 38.3 °F 10.3 °F 30.49 in WNW 1.7 mph 4.6 mph 31 % 0.00 in
19:27 38.1 °F 10.1 °F 30.48 in WNW 0.1 mph 1.2 mph 31 % 0.00 in
19:32 38.0 °F 10.7 °F 30.49 in WNW 0.4 mph 2.3 mph 32 % 0.00 in
19:37 37.9 °F 10.6 °F 30.48 in WNW 0.2 mph 1.0 mph 32 % 0.00 in
19:42 37.7 °F 11.8 °F 30.48 in WNW 0.1 mph 1.0 mph 34 % 0.00 in
19:47 37.6 °F 12.4 °F 30.48 in Calm   2.3 mph 35 % 0.00 in
19:52 37.3 °F 12.7 °F 30.48 in Calm     36 % 0.00 in
19:57 37.1 °F 13.8 °F 30.48 in WNW 1.2 mph 2.3 mph 38 % 0.00 in
20:02 36.7 °F 14.0 °F 30.49 in WNW 0.7 mph 2.3 mph 39 % 0.00 in
20:07 36.4 °F 13.8 °F 30.49 in WNW 1.0 mph 2.3 mph 39 % 0.00 in
20:12 36.1 °F 14.1 °F 30.50 in Calm     40 % 0.00 in
20:17 35.9 °F 13.9 °F 30.50 in Calm     40 % 0.00 in
20:22 35.5 °F 14.6 °F 30.50 in WNW 0.7 mph 2.3 mph 42 % 0.00 in
20:27 35.1 °F 14.3 °F 30.50 in Calm   1.0 mph 42 % 0.00 in
20:32 34.8 °F 13.5 °F 30.50 in Calm     41 % 0.00 in
20:37 34.6 °F 13.8 °F 30.50 in Calm     42 % 0.00 in
20:42 34.2 °F 13.5 °F 30.50 in Calm     42 % 0.00 in
20:47 33.8 °F 13.7 °F 30.50 in Calm   1.0 mph 43 % 0.00 in
20:52 33.4 °F 13.3 °F 30.50 in Calm   2.0 mph 43 % 0.00 in
20:58 33.2 °F 13.1 °F 30.51 in WNW 1.1 mph 2.3 mph 43 % 0.00 in
21:03 32.9 °F 12.3 °F 30.51 in WNW 0.1 mph 1.2 mph 42 % 0.00 in
21:08 32.7 °F 12.6 °F 30.52 in WNW 0.2 mph 1.2 mph 43 % 0.00 in
21:13 32.4 °F 12.9 °F 30.52 in WNW 1.6 mph 3.5 mph 44 % 0.00 in
21:18 32.1 °F 13.1 °F 30.53 in SW 4.2 mph 6.9 mph 45 % 0.00 in
21:23 31.9 °F 14.9 °F 30.54 in SSW 2.1 mph 3.5 mph 49 % 0.00 in
21:28 31.9 °F 16.7 °F 30.55 in SW 2.0 mph 3.5 mph 53 % 0.00 in
21:33 32.0 °F 18.1 °F 30.54 in SW 3.3 mph 4.6 mph 56 % 0.00 in
21:38 32.2 °F 18.7 °F 30.54 in SW 1.6 mph 3.5 mph 57 % 0.00 in
21:43 32.3 °F 19.2 °F 30.54 in SW 2.8 mph 4.6 mph 58 % 0.00 in
21:48 32.4 °F 20.0 °F 30.53 in SW 2.1 mph 3.5 mph 60 % 0.00 in
21:53 32.5 °F 20.5 °F 30.53 in SW 4.0 mph 4.0 mph 61 % 0.00 in
21:58 32.7 °F 21.1 °F 30.53 in SW 3.0 mph 3.5 mph 62 % 0.00 in
22:03 32.8 °F 21.6 °F 30.54 in SSW 3.4 mph 5.0 mph 63 % 0.00 in
22:08 32.9 °F 21.7 °F 30.55 in SSW 2.9 mph 4.6 mph 63 % 0.00 in
22:13 33.0 °F 21.8 °F 30.54 in SW 1.7 mph 3.5 mph 63 % 0.00 in
22:14 33.0 °F 21.8 °F 30.55 in SW 1.6 mph 3.5 mph 63 % 0.00 in
22:19 33.1 °F 22.2 °F 30.55 in SW 1.7 mph 5.8 mph 64 % 0.00 in
22:24 33.2 °F 22.7 °F 30.54 in SSW 2.4 mph 4.0 mph 65 % 0.00 in
22:29 33.2 °F 23.1 °F 30.54 in SW 3.8 mph 5.0 mph 66 % 0.00 in
22:34 33.3 °F 23.2 °F 30.54 in SW 4.0 mph 7.0 mph 66 % 0.00 in
22:39 33.4 °F 23.6 °F 30.54 in SSW 2.2 mph 4.0 mph 67 % 0.00 in
22:44 33.5 °F 23.7 °F 30.54 in WSW 1.3 mph 3.5 mph 67 % 0.00 in
22:49 33.5 °F 23.7 °F 30.54 in WSW 2.2 mph 4.6 mph 67 % 0.00 in
22:54 33.5 °F 24.1 °F 30.53 in SW 1.2 mph 3.5 mph 68 % 0.00 in
22:59 33.5 °F 24.1 °F 30.53 in SW 3.3 mph 4.0 mph 68 % 0.00 in
23:04 33.5 °F 24.4 °F 30.52 in SW 2.5 mph 4.6 mph 69 % 0.00 in
23:09 33.5 °F 24.4 °F 30.51 in SW 2.6 mph 4.6 mph 69 % 0.00 in
23:14 33.5 °F 24.4 °F 30.51 in SW 1.1 mph 4.0 mph 69 % 0.00 in
23:19 33.5 °F 24.8 °F 30.51 in SSW 2.6 mph 4.6 mph 70 % 0.00 in
23:24 33.5 °F 24.8 °F 30.51 in SSW 2.3 mph 3.0 mph 70 % 0.00 in
23:29 33.5 °F 24.8 °F 30.51 in South 0.3 mph 2.3 mph 70 % 0.00 in
23:34 33.5 °F 24.8 °F 30.50 in South 0.6 mph 3.5 mph 70 % 0.00 in
23:39 33.6 °F 25.2 °F 30.50 in SSW 1.7 mph 3.5 mph 71 % 0.00 in
23:45 33.5 °F 25.1 °F 30.50 in SSW 0.5 mph 3.5 mph 71 % 0.00 in
23:50 33.6 °F 25.2 °F 30.50 in SSW 1.4 mph 3.5 mph 71 % 0.00 in
23:55 33.6 °F 25.5 °F 30.50 in SSW 1.7 mph 3.5 mph 72 % 0.00 in
Crab Meadow Weather
Compliments of Weather Underground - 3 mb

Script developed by  Jim McMurry - jmcmurry@mwt.net Adapted for the template by  Wim van der Kuil - Leuven-Template.eu

Weather Terms: High Wind Warning - Sustained winds of 40 mph or greater for a duration of one hour or longer or gusts to 58 mph or greater.